createdAt,value
2015-06-18T00:00:16.192Z,15.2
2015-06-18T00:00:34.629Z,15.1
2015-06-18T00:00:53.114Z,15.1
2015-06-18T00:01:11.773Z,15.1
2015-06-18T00:01:30.585Z,15
2015-06-18T00:01:48.398Z,15
2015-06-18T00:02:07.273Z,15
2015-06-18T00:02:25.603Z,15
2015-06-18T00:02:43.994Z,15
2015-06-18T00:03:02.556Z,15.1
2015-06-18T00:03:20.840Z,14.9
2015-06-18T00:03:39.309Z,15
2015-06-18T00:03:57.825Z,15
2015-06-18T00:04:16.215Z,15.1
2015-06-18T00:04:34.781Z,15
2015-06-18T00:04:53.281Z,15
2015-06-18T00:05:11.718Z,15
2015-06-18T00:05:29.736Z,14.9
2015-06-18T00:05:48.236Z,14.8
2015-06-18T00:06:06.908Z,14.8
2015-06-18T00:06:25.299Z,14.8
2015-06-18T00:06:43.598Z,14.9
2015-06-18T00:07:02.286Z,14.9
2015-06-18T00:07:20.255Z,15
2015-06-18T00:07:38.694Z,15
2015-06-18T00:07:57.257Z,14.9
2015-06-18T00:08:15.663Z,14.9
2015-06-18T00:08:34.132Z,14.9
2015-06-18T00:08:52.102Z,14.8
2015-06-18T00:09:10.431Z,14.8
2015-06-18T00:09:28.368Z,14.9
2015-06-18T00:09:46.839Z,15
2015-06-18T00:10:05.511Z,15
2015-06-18T00:10:23.870Z,15.1
2015-06-18T00:10:41.698Z,15.1
2015-06-18T00:11:00.061Z,15.1
2015-06-18T00:11:18.623Z,15.1
2015-06-18T00:11:37.326Z,15.2
2015-06-18T00:11:55.689Z,15.2
2015-06-18T00:12:14.360Z,15.2
2015-06-18T00:12:33.314Z,15.1
2015-06-18T00:12:51.595Z,15.1
2015-06-18T00:13:09.878Z,15.1
2015-06-18T00:13:28.175Z,15.1
2015-06-18T00:13:46.675Z,15.2
2015-06-18T00:14:05.022Z,15.2
2015-06-18T00:14:23.334Z,15.3
2015-06-18T00:14:41.631Z,15.2
2015-06-18T00:14:59.959Z,15.2
2015-06-18T00:15:18.242Z,15.1
2015-06-18T00:15:36.664Z,15.1
2015-06-18T00:15:54.930Z,15.2
2015-06-18T00:16:13.229Z,15.2
2015-06-18T00:16:31.541Z,15.3
2015-06-18T00:16:49.838Z,15.2
2015-06-18T00:17:08.151Z,15.2
2015-06-18T00:17:26.747Z,15.2
2015-06-18T00:17:45.326Z,15.2
2015-06-18T00:18:03.888Z,15.2
2015-06-18T00:18:22.172Z,15.2
2015-06-18T00:18:40.844Z,15.1
2015-06-18T00:18:59.688Z,15.1
2015-06-18T00:19:18.235Z,15.1
2015-06-18T00:19:36.721Z,15.1
2015-06-18T00:19:55.049Z,15
2015-06-18T00:20:13.534Z,15
2015-06-18T00:20:32.084Z,15.1
2015-06-18T00:20:50.459Z,15.1
2015-06-18T00:21:08.115Z,15.1
2015-06-18T00:21:26.396Z,15.2
2015-06-18T00:21:44.836Z,15.2
2015-06-18T00:22:03.257Z,15.1
2015-06-18T00:22:21.601Z,15.1
2015-06-18T00:22:40.025Z,15.1
2015-06-18T00:22:57.759Z,15.2
2015-06-18T00:23:16.166Z,15.2
2015-06-18T00:23:34.697Z,15.1
2015-06-18T00:23:53.028Z,15
2015-06-18T00:24:10.794Z,15.1
2015-06-18T00:24:29.169Z,15.1
2015-06-18T00:24:47.483Z,15.2
2015-06-18T00:25:06.249Z,15.1
2015-06-18T00:25:24.561Z,15.1
2015-06-18T00:25:43.030Z,15.1
2015-06-18T00:26:01.236Z,15.1
2015-06-18T00:26:19.705Z,15.2
2015-06-18T00:26:38.314Z,15.2
2015-06-18T00:26:56.145Z,15.2
2015-06-18T00:27:14.442Z,15.1
2015-06-18T00:27:32.739Z,15
2015-06-18T00:27:52.161Z,15
2015-06-18T00:28:10.521Z,15
2015-06-18T00:28:28.912Z,15
2015-06-18T00:28:47.193Z,15
2015-06-18T00:29:05.540Z,14.9
2015-06-18T00:29:24.228Z,15
2015-06-18T00:29:42.743Z,15
2015-06-18T00:30:01.149Z,15
2015-06-18T00:30:19.731Z,15
2015-06-18T00:30:38.512Z,15
2015-06-18T00:30:57.168Z,14.9
2015-06-18T00:31:15.812Z,14.8
2015-06-18T00:31:34.249Z,14.8
2015-06-18T00:31:52.624Z,14.8
2015-06-18T00:32:10.905Z,14.7
2015-06-18T00:32:29.423Z,14.7
2015-06-18T00:32:47.954Z,14.6
2015-06-18T00:33:06.142Z,14.5
2015-06-18T00:33:24.660Z,14.6
2015-06-18T00:33:43.051Z,14.7
2015-06-18T00:34:01.660Z,14.7
2015-06-18T00:34:19.942Z,14.7
2015-06-18T00:34:38.303Z,14.6
2015-06-18T00:34:56.600Z,14.5
2015-06-18T00:35:15.194Z,14.5
2015-06-18T00:35:33.540Z,14.6
2015-06-18T00:35:52.103Z,14.6
2015-06-18T00:36:09.837Z,14.6
2015-06-18T00:36:28.290Z,14.7
2015-06-18T00:36:45.933Z,14.6
2015-06-18T00:37:03.792Z,14.5
2015-06-18T00:37:22.183Z,14.5
2015-06-18T00:37:40.654Z,14.4
2015-06-18T00:37:59.154Z,14.5
2015-06-18T00:38:17.482Z,14.6
2015-06-18T00:38:35.748Z,14.7
2015-06-18T00:38:54.031Z,14.7
2015-06-18T00:39:12.500Z,14.7
2015-06-18T00:39:30.906Z,14.7
2015-06-18T00:39:49.346Z,14.6
2015-06-18T00:40:07.815Z,14.7
2015-06-18T00:40:26.424Z,14.7
2015-06-18T00:40:45.190Z,14.7
2015-06-18T00:41:03.506Z,14.8
2015-06-18T00:41:22.006Z,14.8
2015-06-18T00:41:39.927Z,14.8
2015-06-18T00:41:58.242Z,14.8
2015-06-18T00:42:16.289Z,14.8
2015-06-18T00:42:34.789Z,14.8
2015-06-18T00:42:53.148Z,14.8
2015-06-18T00:43:11.525Z,14.8
2015-06-18T00:43:29.806Z,14.8
2015-06-18T00:43:48.260Z,14.7
2015-06-18T00:44:06.544Z,14.7
2015-06-18T00:44:25.091Z,14.8
2015-06-18T00:44:43.466Z,14.8
2015-06-18T00:45:02.153Z,14.8
2015-06-18T00:45:20.547Z,14.7
2015-06-18T00:45:38.937Z,14.7
2015-06-18T00:46:16.018Z,14.7
2015-06-18T00:46:34.486Z,14.6
2015-06-18T00:46:53.033Z,14.5
2015-06-18T00:47:11.549Z,14.6
2015-06-18T00:47:29.411Z,14.6
2015-06-18T00:47:47.817Z,14.6
2015-06-18T00:48:06.146Z,14.8
2015-06-18T00:48:24.491Z,14.6
2015-06-18T00:48:42.976Z,14.5
2015-06-18T00:49:01.851Z,14.5
2015-06-18T00:49:20.194Z,14.6
2015-06-18T00:49:38.681Z,14.6
2015-06-18T00:49:57.259Z,14.7
2015-06-18T00:50:15.650Z,14.7
2015-06-18T00:50:34.293Z,14.7
2015-06-18T00:50:53.028Z,14.8
2015-06-18T00:51:11.731Z,14.8
2015-06-18T00:51:30.371Z,14.8
2015-06-18T00:51:48.795Z,14.8
2015-06-18T00:52:07.233Z,14.8
2015-06-18T00:52:25.530Z,14.8
2015-06-18T00:52:44.142Z,14.8
2015-06-18T00:53:01.939Z,14.9
2015-06-18T00:53:20.236Z,14.7
2015-06-18T00:53:38.783Z,14.7
2015-06-18T00:53:57.254Z,14.7
2015-06-18T00:54:15.598Z,14.7
2015-06-18T00:54:34.348Z,14.6
2015-06-18T00:54:52.803Z,14.6
2015-06-18T00:55:10.725Z,14.6
2015-06-18T00:55:29.303Z,14.6
2015-06-18T00:55:47.897Z,14.7
2015-06-18T00:56:06.430Z,14.6
2015-06-18T00:56:25.008Z,14.6
2015-06-18T00:56:43.586Z,14.6
2015-06-18T00:57:02.089Z,14.6
2015-06-18T00:57:20.558Z,14.5
2015-06-18T00:57:38.980Z,14.5
2015-06-18T00:57:57.574Z,14.5
2015-06-18T00:58:15.966Z,14.6
2015-06-18T00:58:34.404Z,14.5
2015-06-18T00:58:52.873Z,14.5
2015-06-18T00:59:11.156Z,14.5
2015-06-18T00:59:29.765Z,14.4
2015-06-18T00:59:48.562Z,14.4
2015-06-18T01:00:06.843Z,14.4
2015-06-18T01:00:25.237Z,14.4
2015-06-18T01:00:43.612Z,14.5
2015-06-18T01:01:02.237Z,14.4
2015-06-18T01:01:20.615Z,14.4
2015-06-18T01:01:39.131Z,14.4
2015-06-18T01:01:57.662Z,14.5
2015-06-18T01:02:16.178Z,14.4
2015-06-18T01:02:34.039Z,14.4
2015-06-18T01:02:52.523Z,14.4
2015-06-18T01:03:10.336Z,14.5
2015-06-18T01:03:28.791Z,14.5
2015-06-18T01:03:47.447Z,14.6
2015-06-18T01:04:05.744Z,14.6
2015-06-18T01:04:24.119Z,14.7
2015-06-18T01:04:42.513Z,14.7
2015-06-18T01:05:00.966Z,14.6
2015-06-18T01:05:19.372Z,14.5
2015-06-18T01:05:37.671Z,14.5
2015-06-18T01:05:56.327Z,14.5
2015-06-18T01:06:14.952Z,14.5
2015-06-18T01:06:33.515Z,14.6
2015-06-18T01:06:51.924Z,14.6
2015-06-18T01:07:10.440Z,14.6
2015-06-18T01:07:28.971Z,14.6
2015-06-18T01:07:47.426Z,14.5
2015-06-18T01:08:05.785Z,14.5
2015-06-18T01:08:24.145Z,14.4
2015-06-18T01:08:42.676Z,14.4
2015-06-18T01:09:01.273Z,14.4
2015-06-18T01:09:19.695Z,14.4
2015-06-18T01:09:38.054Z,14.4
2015-06-18T01:09:56.573Z,14.4
2015-06-18T01:10:14.963Z,14.4
2015-06-18T01:10:33.510Z,14.5
2015-06-18T01:10:51.791Z,14.5
2015-06-18T01:11:10.434Z,14.6
2015-06-18T01:11:28.934Z,14.6
2015-06-18T01:11:47.356Z,14.6
2015-06-18T01:12:05.656Z,14.5
2015-06-18T01:12:23.953Z,14.5
2015-06-18T01:12:42.312Z,14.5
2015-06-18T01:13:00.874Z,14.5
2015-06-18T01:13:18.705Z,14.4
2015-06-18T01:13:37.236Z,14.4
2015-06-18T01:13:55.736Z,14.4
2015-06-18T01:14:14.426Z,14.4
2015-06-18T01:14:32.879Z,14.5
2015-06-18T01:14:51.489Z,14.5
2015-06-18T01:15:10.004Z,14.4
2015-06-18T01:15:28.288Z,14.3
2015-06-18T01:15:46.975Z,14.3
2015-06-18T01:16:05.256Z,14.2
2015-06-18T01:16:23.728Z,14.2
2015-06-18T01:16:42.291Z,14.2
2015-06-18T01:17:00.650Z,14.2
2015-06-18T01:17:18.994Z,14.1
2015-06-18T01:17:37.386Z,14.1
2015-06-18T01:17:56.121Z,14.2
2015-06-18T01:18:14.605Z,14.2
2015-06-18T01:18:33.296Z,14.2
2015-06-18T01:18:51.889Z,14.2
2015-06-18T01:19:10.436Z,14.3
2015-06-18T01:19:28.952Z,14.3
2015-06-18T01:19:47.375Z,14.4
2015-06-18T01:20:06.172Z,14.3
2015-06-18T01:20:24.765Z,14.2
2015-06-18T01:20:43.081Z,14.3
2015-06-18T01:21:01.456Z,14.3
2015-06-18T01:21:19.190Z,14.3
2015-06-18T01:21:37.503Z,14.3
2015-06-18T01:21:55.834Z,14.4
2015-06-18T01:22:14.178Z,14.5
2015-06-18T01:22:32.568Z,14.4
2015-06-18T01:22:50.773Z,14.4
2015-06-18T01:23:09.102Z,14.4
2015-06-18T01:23:27.414Z,14.5
2015-06-18T01:23:45.914Z,14.5
2015-06-18T01:24:04.401Z,14.6
2015-06-18T01:24:22.855Z,14.6
2015-06-18T01:24:41.323Z,14.6
2015-06-18T01:24:59.733Z,14.5
2015-06-18T01:25:18.264Z,14.3
2015-06-18T01:25:36.623Z,14.3
2015-06-18T01:25:55.154Z,14.4
2015-06-18T01:26:13.438Z,14.3
2015-06-18T01:26:31.750Z,14.4
2015-06-18T01:26:50.406Z,14.5
2015-06-18T01:27:08.768Z,14.5
2015-06-18T01:27:27.408Z,14.5
2015-06-18T01:27:45.799Z,14.5
2015-06-18T01:28:04.127Z,14.6
2015-06-18T01:28:22.536Z,14.6
2015-06-18T01:28:41.005Z,14.6
2015-06-18T01:28:59.693Z,14.6
2015-06-18T01:29:18.210Z,14.6
2015-06-18T01:29:36.617Z,14.7
2015-06-18T01:29:55.210Z,14.7
2015-06-18T01:30:13.585Z,14.7
2015-06-18T01:30:31.369Z,14.7
2015-06-18T01:30:49.759Z,14.7
2015-06-18T01:31:08.650Z,14.7
2015-06-18T01:31:27.326Z,14.8
2015-06-18T01:31:45.669Z,14.8
2015-06-18T01:32:04.216Z,14.8
2015-06-18T01:32:22.544Z,14.8
2015-06-18T01:32:40.993Z,14.7
2015-06-18T01:32:59.524Z,14.6
2015-06-18T01:33:18.009Z,14.6
2015-06-18T01:33:36.695Z,14.7
2015-06-18T01:33:55.039Z,14.7
2015-06-18T01:34:13.555Z,14.7
2015-06-18T01:34:31.977Z,14.8
2015-06-18T01:34:50.632Z,14.8
2015-06-18T01:35:09.695Z,14.8
2015-06-18T01:35:28.101Z,14.8
2015-06-18T01:35:46.397Z,14.8
2015-06-18T01:36:04.788Z,14.9
2015-06-18T01:36:23.491Z,14.8
2015-06-18T01:36:41.960Z,14.8
2015-06-18T01:37:00.362Z,14.8
2015-06-18T01:37:18.706Z,14.8
2015-06-18T01:37:37.206Z,14.8
2015-06-18T01:37:55.557Z,14.9
2015-06-18T01:38:13.885Z,14.8
2015-06-18T01:38:32.416Z,14.9
2015-06-18T01:38:50.713Z,14.9
2015-06-18T01:39:09.033Z,14.8
2015-06-18T01:39:27.330Z,14.8
2015-06-18T01:39:45.080Z,14.8
2015-06-18T01:40:03.384Z,14.7
2015-06-18T01:40:21.728Z,14.7
2015-06-18T01:40:40.275Z,14.7
2015-06-18T01:40:58.634Z,14.6
2015-06-18T01:41:17.094Z,14.5
2015-06-18T01:41:35.859Z,14.5
2015-06-18T01:41:54.234Z,14.5
2015-06-18T01:42:12.693Z,14.5
2015-06-18T01:42:31.178Z,14.5
2015-06-18T01:42:49.537Z,14.5
2015-06-18T01:43:07.959Z,14.6
2015-06-18T01:43:26.509Z,14.7
2015-06-18T01:43:44.790Z,14.6
2015-06-18T01:44:03.118Z,14.5
2015-06-18T01:44:21.903Z,14.5
2015-06-18T01:44:40.294Z,14.6
2015-06-18T01:44:58.763Z,14.7
2015-06-18T01:45:17.528Z,14.7
2015-06-18T01:45:35.862Z,14.7
2015-06-18T01:45:54.190Z,14.6
2015-06-18T01:46:12.612Z,14.6
2015-06-18T01:46:31.070Z,14.6
2015-06-18T01:46:48.867Z,14.7
2015-06-18T01:47:07.320Z,14.6
2015-06-18T01:47:25.742Z,14.6
2015-06-18T01:47:44.244Z,14.7
2015-06-18T01:48:02.759Z,14.7
2015-06-18T01:48:21.040Z,14.6
2015-06-18T01:48:39.450Z,14.6
2015-06-18T01:48:57.887Z,14.6
2015-06-18T01:49:16.372Z,14.5
2015-06-18T01:49:34.684Z,14.5
2015-06-18T01:49:53.125Z,14.6
2015-06-18T01:50:11.656Z,14.7
2015-06-18T01:50:30.125Z,14.7
2015-06-18T01:50:48.548Z,14.7
2015-06-18T01:51:07.080Z,14.7
2015-06-18T01:51:25.595Z,14.7
2015-06-18T01:51:43.923Z,14.7
2015-06-18T01:52:02.411Z,14.7
2015-06-18T01:52:20.880Z,14.7
2015-06-18T01:52:39.567Z,14.6
2015-06-18T01:52:57.962Z,14.6
2015-06-18T01:53:16.290Z,14.6
2015-06-18T01:53:34.634Z,14.6
2015-06-18T01:53:52.993Z,14.7
2015-06-18T01:54:11.668Z,14.8
2015-06-18T01:54:30.090Z,14.8
2015-06-18T01:54:48.387Z,14.9
2015-06-18T01:55:06.718Z,14.9
2015-06-18T01:55:24.890Z,14.9
2015-06-18T01:55:43.171Z,14.9
2015-06-18T01:56:01.858Z,14.9
2015-06-18T01:56:20.204Z,14.8
2015-06-18T01:56:38.517Z,14.7
2015-06-18T01:56:56.813Z,14.7
2015-06-18T01:57:15.113Z,14.7
2015-06-18T01:57:33.426Z,14.6
2015-06-18T01:57:51.066Z,14.6
2015-06-18T01:58:09.441Z,14.6
2015-06-18T01:58:27.740Z,14.7
2015-06-18T01:58:46.022Z,14.6
2015-06-18T01:59:04.443Z,14.7
2015-06-18T01:59:22.962Z,14.7
2015-06-18T01:59:41.540Z,14.7
2015-06-18T01:59:59.978Z,14.7
2015-06-18T02:00:18.446Z,14.7
2015-06-18T02:00:36.980Z,14.8
2015-06-18T02:00:55.433Z,14.9
2015-06-18T02:01:14.073Z,14.9
2015-06-18T02:01:32.388Z,14.8
2015-06-18T02:01:50.763Z,14.9
2015-06-18T02:02:09.263Z,14.9
2015-06-18T02:02:27.763Z,14.9
2015-06-18T02:02:46.313Z,15
2015-06-18T02:03:04.110Z,15
2015-06-18T02:03:22.391Z,15
2015-06-18T02:03:40.894Z,14.9
2015-06-18T02:03:59.285Z,14.9
2015-06-18T02:04:17.566Z,14.8
2015-06-18T02:04:35.910Z,14.7
2015-06-18T02:04:54.224Z,14.7
2015-06-18T02:05:11.958Z,14.6
2015-06-18T02:05:30.443Z,14.6
2015-06-18T02:05:49.086Z,14.6
2015-06-18T02:06:07.555Z,14.6
2015-06-18T02:06:26.211Z,14.6
2015-06-18T02:06:44.618Z,14.6
2015-06-18T02:07:03.198Z,14.6
2015-06-18T02:07:21.526Z,14.5
2015-06-18T02:07:40.151Z,14.5
2015-06-18T02:07:58.403Z,14.6
2015-06-18T02:08:16.981Z,14.7
2015-06-18T02:08:35.450Z,14.7
2015-06-18T02:08:53.981Z,14.5
2015-06-18T02:09:12.452Z,14.5
2015-06-18T02:09:30.921Z,14.6
2015-06-18T02:09:49.452Z,14.6
2015-06-18T02:10:07.878Z,14.7
2015-06-18T02:10:26.346Z,14.7
2015-06-18T02:10:44.753Z,14.6
2015-06-18T02:11:03.284Z,14.6
2015-06-18T02:11:21.567Z,14.6
2015-06-18T02:11:40.067Z,14.6
2015-06-18T02:11:58.458Z,14.6
2015-06-18T02:12:16.819Z,14.7
2015-06-18T02:12:35.100Z,14.7
2015-06-18T02:12:53.522Z,14.7
2015-06-18T02:13:11.929Z,14.7
2015-06-18T02:13:30.416Z,14.7
2015-06-18T02:13:48.822Z,14.6
2015-06-18T02:14:07.150Z,14.6
2015-06-18T02:14:25.435Z,14.7
2015-06-18T02:14:43.872Z,14.7
2015-06-18T02:15:02.294Z,14.8
2015-06-18T02:15:20.638Z,14.8
2015-06-18T02:15:38.968Z,14.9
2015-06-18T02:15:57.546Z,14.9
2015-06-18T02:16:16.562Z,14.9
2015-06-18T02:16:35.142Z,15
2015-06-18T02:16:53.689Z,15
2015-06-18T02:17:12.001Z,15
2015-06-18T02:17:30.001Z,15
2015-06-18T02:17:48.348Z,15
2015-06-18T02:18:06.192Z,15
2015-06-18T02:18:24.535Z,15.1
2015-06-18T02:18:42.397Z,15.1
2015-06-18T02:19:00.897Z,15.1
2015-06-18T02:19:19.350Z,14.9
2015-06-18T02:19:37.678Z,14.9
2015-06-18T02:19:56.165Z,14.9
2015-06-18T02:20:14.556Z,14.8
2015-06-18T02:20:33.087Z,14.9
2015-06-18T02:20:51.480Z,14.8
2015-06-18T02:21:10.058Z,14.9
2015-06-18T02:21:27.808Z,14.9
2015-06-18T02:21:45.620Z,14.9
2015-06-18T02:22:04.123Z,14.8
2015-06-18T02:22:22.655Z,14.8
2015-06-18T02:22:41.077Z,14.9
2015-06-18T02:22:59.094Z,14.7
2015-06-18T02:23:17.797Z,14.8
2015-06-18T02:23:36.094Z,14.8
2015-06-18T02:23:54.563Z,14.8
2015-06-18T02:24:12.893Z,14.8
2015-06-18T02:24:31.190Z,14.8
2015-06-18T02:24:49.674Z,14.9
2015-06-18T02:25:07.990Z,14.8
2015-06-18T02:25:26.552Z,14.8
2015-06-18T02:25:45.021Z,14.9
2015-06-18T02:26:03.505Z,15
2015-06-18T02:26:21.852Z,15
2015-06-18T02:26:40.524Z,15
2015-06-18T02:26:58.805Z,15
2015-06-18T02:27:17.307Z,15
2015-06-18T02:27:35.745Z,15
2015-06-18T02:27:54.198Z,15
2015-06-18T02:28:12.479Z,15
2015-06-18T02:28:31.420Z,15
2015-06-18T02:28:49.154Z,15.1
2015-06-18T02:29:07.310Z,15.1
2015-06-18T02:29:25.812Z,15
2015-06-18T02:29:44.109Z,15
2015-06-18T02:30:02.469Z,15.1
2015-06-18T02:30:21.094Z,15.1
2015-06-18T02:30:39.456Z,15.1
2015-06-18T02:30:58.128Z,15.1
2015-06-18T02:31:16.409Z,15.1
2015-06-18T02:31:34.880Z,15
2015-06-18T02:31:53.224Z,15.1
2015-06-18T02:32:11.661Z,15
2015-06-18T02:32:30.005Z,15.1
2015-06-18T02:32:48.319Z,14.9
2015-06-18T02:33:06.601Z,14.8
2015-06-18T02:33:25.116Z,14.8
2015-06-18T02:33:42.916Z,14.8
2015-06-18T02:34:00.104Z,14.9
2015-06-18T02:34:18.729Z,14.9
2015-06-18T02:34:37.119Z,14.9
2015-06-18T02:34:55.606Z,14.9
2015-06-18T02:35:13.887Z,15
2015-06-18T02:35:32.387Z,14.9
2015-06-18T02:35:50.780Z,14.9
2015-06-18T02:36:09.093Z,14.9
2015-06-18T02:36:27.405Z,14.9
2015-06-18T02:36:45.937Z,14.9
2015-06-18T02:37:04.439Z,14.9
2015-06-18T02:37:23.126Z,14.7
2015-06-18T02:37:41.611Z,14.7
2015-06-18T02:38:00.082Z,14.7
2015-06-18T02:38:18.442Z,14.8
2015-06-18T02:38:36.754Z,14.8
2015-06-18T02:38:55.145Z,14.9
2015-06-18T02:39:13.694Z,14.9
2015-06-18T02:39:32.178Z,14.9
2015-06-18T02:39:50.881Z,14.9
2015-06-18T02:40:09.352Z,14.9
2015-06-18T02:40:27.649Z,14.8
2015-06-18T02:40:46.180Z,14.8
2015-06-18T02:41:04.868Z,14.9
2015-06-18T02:41:23.355Z,14.9
2015-06-18T02:41:42.058Z,14.9
2015-06-18T02:42:00.761Z,14.9
2015-06-18T02:42:19.076Z,14.8
2015-06-18T02:42:36.826Z,14.8
2015-06-18T02:42:55.138Z,14.8
2015-06-18T02:43:13.591Z,14.8
2015-06-18T02:43:32.329Z,14.8
2015-06-18T02:43:50.672Z,14.8
2015-06-18T02:44:09.313Z,14.8
2015-06-18T02:44:27.754Z,14.9
2015-06-18T02:44:45.691Z,14.9
2015-06-18T02:45:04.097Z,15
2015-06-18T02:45:22.707Z,15.1
2015-06-18T02:45:41.256Z,15.1
2015-06-18T02:45:59.709Z,15.1
2015-06-18T02:46:17.568Z,15.1
2015-06-18T02:46:35.476Z,14.9
2015-06-18T02:46:54.023Z,15
2015-06-18T02:47:11.898Z,15
2015-06-18T02:47:30.445Z,15
2015-06-18T02:47:48.839Z,15.1
2015-06-18T02:48:07.307Z,15.1
2015-06-18T02:48:25.948Z,15
2015-06-18T02:48:44.528Z,15
2015-06-18T02:49:02.841Z,15.1
2015-06-18T02:49:21.153Z,15.1
2015-06-18T02:49:39.856Z,15.2
2015-06-18T02:49:58.187Z,15.1
2015-06-18T02:50:16.687Z,15
2015-06-18T02:50:35.422Z,15
2015-06-18T02:50:53.706Z,15
2015-06-18T02:51:12.097Z,15.1
2015-06-18T02:51:30.659Z,15.1
2015-06-18T02:51:48.972Z,15
2015-06-18T02:52:07.567Z,14.9
2015-06-18T02:52:25.849Z,14.8
2015-06-18T02:52:44.161Z,14.8
2015-06-18T02:53:02.460Z,14.8
2015-06-18T02:53:20.773Z,14.8
2015-06-18T02:53:39.085Z,14.8
2015-06-18T02:53:57.491Z,14.8
2015-06-18T02:54:15.791Z,14.9
2015-06-18T02:54:34.416Z,14.8
2015-06-18T02:54:52.307Z,14.8
2015-06-18T02:55:10.293Z,14.8
2015-06-18T02:55:28.606Z,14.8
2015-06-18T02:55:47.074Z,14.9
2015-06-18T02:56:05.356Z,15
2015-06-18T02:56:23.983Z,15
2015-06-18T02:56:42.295Z,15.1
2015-06-18T02:57:00.623Z,15
2015-06-18T02:57:19.034Z,15
2015-06-18T02:57:37.643Z,15
2015-06-18T02:57:55.565Z,15
2015-06-18T02:58:14.096Z,15
2015-06-18T02:58:32.395Z,15
2015-06-18T02:58:50.879Z,15
2015-06-18T02:59:09.176Z,15.1
2015-06-18T02:59:27.475Z,15.1
2015-06-18T02:59:45.756Z,15.1
2015-06-18T03:00:03.647Z,15
2015-06-18T03:00:21.475Z,15
2015-06-18T03:00:40.211Z,15.1
2015-06-18T03:00:58.555Z,15.2
2015-06-18T03:01:17.211Z,15.1
2015-06-18T03:01:35.122Z,15.2
2015-06-18T03:01:53.294Z,15.2
2015-06-18T03:02:11.950Z,15.2
2015-06-18T03:02:30.247Z,15.1
2015-06-18T03:02:48.138Z,15.1
2015-06-18T03:03:05.904Z,15.1
2015-06-18T03:03:24.310Z,15.2
2015-06-18T03:03:42.923Z,15.3
2015-06-18T03:04:01.251Z,15.3
2015-06-18T03:04:19.798Z,15.3
2015-06-18T03:04:38.204Z,15.3
2015-06-18T03:04:56.721Z,15.3
2015-06-18T03:05:15.300Z,15.3
2015-06-18T03:05:33.846Z,15.3
2015-06-18T03:05:52.365Z,15.3
2015-06-18T03:06:10.849Z,15.3
2015-06-18T03:06:29.240Z,15.4
2015-06-18T03:06:47.678Z,15.4
2015-06-18T03:07:06.227Z,15.5
2015-06-18T03:07:25.009Z,15.5
2015-06-18T03:07:43.493Z,15.5
2015-06-18T03:08:01.854Z,15.6
2015-06-18T03:08:20.370Z,15.6
2015-06-18T03:08:38.839Z,15.5
2015-06-18T03:08:57.417Z,15.5
2015-06-18T03:09:15.778Z,15.5
2015-06-18T03:09:34.091Z,15.6
2015-06-18T03:09:52.606Z,15.4
2015-06-18T03:10:10.906Z,15.5
2015-06-18T03:10:29.422Z,15.4
2015-06-18T03:10:48.125Z,15.3
2015-06-18T03:11:06.438Z,15.2
2015-06-18T03:11:25.003Z,15.2
2015-06-18T03:11:43.425Z,15.2
2015-06-18T03:12:01.847Z,15.2
2015-06-18T03:12:20.193Z,15.3
2015-06-18T03:12:38.614Z,15.3
2015-06-18T03:12:56.896Z,15.3
2015-06-18T03:13:15.255Z,15.3
2015-06-18T03:13:33.554Z,15.3
2015-06-18T03:13:51.976Z,15.2
2015-06-18T03:14:09.913Z,15.2
2015-06-18T03:14:28.306Z,15.2
2015-06-18T03:14:46.650Z,15.1
2015-06-18T03:15:04.947Z,15.1
2015-06-18T03:15:23.556Z,15
2015-06-18T03:15:41.950Z,15.1
2015-06-18T03:16:00.340Z,15.1
2015-06-18T03:16:18.746Z,15
2015-06-18T03:16:37.281Z,15
2015-06-18T03:16:55.578Z,15.1
2015-06-18T03:17:14.156Z,15.1
2015-06-18T03:17:32.468Z,15.1
2015-06-18T03:17:50.908Z,15
2015-06-18T03:18:09.314Z,15
2015-06-18T03:18:27.642Z,14.9
2015-06-18T03:18:46.066Z,14.9
2015-06-18T03:19:04.378Z,14.9
2015-06-18T03:19:22.144Z,14.9
2015-06-18T03:19:40.582Z,15
2015-06-18T03:19:58.866Z,15
2015-06-18T03:20:17.147Z,14.9
2015-06-18T03:20:35.444Z,15
2015-06-18T03:20:53.931Z,15
2015-06-18T03:21:12.400Z,15.1
2015-06-18T03:21:30.947Z,15.1
2015-06-18T03:21:49.275Z,15.1
2015-06-18T03:22:07.574Z,15.1
2015-06-18T03:22:26.121Z,15.1
2015-06-18T03:22:44.824Z,15.1
2015-06-18T03:23:03.264Z,15.1
2015-06-18T03:23:21.733Z,15.1
2015-06-18T03:23:40.343Z,15.1
2015-06-18T03:23:58.624Z,15
2015-06-18T03:24:17.312Z,15
2015-06-18T03:24:35.734Z,15.1
2015-06-18T03:24:53.672Z,15.1
2015-06-18T03:25:12.003Z,15
2015-06-18T03:25:30.315Z,14.9
2015-06-18T03:25:48.628Z,14.9
2015-06-18T03:26:06.440Z,15
2015-06-18T03:26:24.771Z,15
2015-06-18T03:26:43.115Z,15.1
2015-06-18T03:27:01.600Z,15.1
2015-06-18T03:27:20.164Z,15.1
2015-06-18T03:27:38.727Z,15.1
2015-06-18T03:27:57.102Z,15.1
2015-06-18T03:28:15.445Z,15
2015-06-18T03:28:34.136Z,15
2015-06-18T03:28:52.839Z,15.1
2015-06-18T03:29:11.151Z,15.1
2015-06-18T03:29:29.622Z,15
2015-06-18T03:29:47.997Z,15
2015-06-18T03:30:06.372Z,15
2015-06-18T03:30:24.872Z,15
2015-06-18T03:30:43.563Z,15
2015-06-18T03:31:02.297Z,14.9
2015-06-18T03:31:20.672Z,14.9
2015-06-18T03:31:39.002Z,14.9
2015-06-18T03:31:57.440Z,15
2015-06-18T03:32:15.174Z,14.9
2015-06-18T03:32:33.627Z,15
2015-06-18T03:32:51.942Z,15
2015-06-18T03:33:10.520Z,15
2015-06-18T03:33:28.879Z,15
2015-06-18T03:33:47.321Z,14.9
2015-06-18T03:34:05.618Z,14.9
2015-06-18T03:34:24.102Z,14.8
2015-06-18T03:34:42.508Z,14.8
2015-06-18T03:35:00.932Z,14.9
2015-06-18T03:35:19.354Z,14.8
2015-06-18T03:35:37.698Z,14.8
2015-06-18T03:35:56.201Z,14.8
2015-06-18T03:36:14.685Z,14.9
2015-06-18T03:36:33.201Z,14.9
2015-06-18T03:36:51.482Z,14.9
2015-06-18T03:37:09.874Z,15
2015-06-18T03:37:28.202Z,15
2015-06-18T03:37:46.483Z,15
2015-06-18T03:38:04.767Z,15
2015-06-18T03:38:23.189Z,15
2015-06-18T03:38:41.673Z,15
2015-06-18T03:38:59.970Z,15
2015-06-18T03:39:18.300Z,14.9
2015-06-18T03:39:36.613Z,14.9
2015-06-18T03:39:54.972Z,14.9
2015-06-18T03:40:13.272Z,14.9
2015-06-18T03:40:31.553Z,15
2015-06-18T03:40:50.257Z,15
2015-06-18T03:41:08.600Z,15
2015-06-18T03:41:26.930Z,15
2015-06-18T03:41:45.259Z,14.9
2015-06-18T03:42:03.696Z,14.9
2015-06-18T03:42:22.152Z,15
2015-06-18T03:42:40.715Z,14.9
2015-06-18T03:42:59.074Z,14.9
2015-06-18T03:43:17.355Z,15
2015-06-18T03:43:35.639Z,14.8
2015-06-18T03:43:53.951Z,14.8
2015-06-18T03:44:12.342Z,14.9
2015-06-18T03:44:30.767Z,14.9
2015-06-18T03:44:49.204Z,14.9
2015-06-18T03:45:07.657Z,15
2015-06-18T03:45:25.423Z,14.9
2015-06-18T03:45:43.566Z,14.9
2015-06-18T03:46:21.332Z,14.7
2015-06-18T03:46:39.225Z,14.7
2015-06-18T03:46:57.506Z,14.7
2015-06-18T03:47:15.834Z,14.8
2015-06-18T03:47:34.178Z,14.8
2015-06-18T03:47:51.992Z,14.8
2015-06-18T03:48:10.367Z,14.8
2015-06-18T03:48:29.024Z,14.9
2015-06-18T03:48:47.745Z,14.8
2015-06-18T03:49:06.214Z,14.9
2015-06-18T03:49:24.652Z,14.9
2015-06-18T03:49:43.105Z,15
2015-06-18T03:50:01.467Z,15
2015-06-18T03:50:20.170Z,15
2015-06-18T03:50:38.858Z,15.1
2015-06-18T03:50:57.375Z,15.1
2015-06-18T03:51:15.922Z,15.1
2015-06-18T03:51:34.313Z,15.1
2015-06-18T03:51:52.828Z,15.1
2015-06-18T03:52:10.597Z,15.1
2015-06-18T03:52:29.066Z,15
2015-06-18T03:52:47.081Z,15.1
2015-06-18T03:53:05.567Z,15.1
2015-06-18T03:53:24.239Z,15
2015-06-18T03:53:42.801Z,15
2015-06-18T03:54:01.192Z,15
2015-06-18T03:54:19.570Z,15.1
2015-06-18T03:54:37.429Z,15.1
2015-06-18T03:54:55.835Z,15.2
2015-06-18T03:55:14.182Z,15.3
2015-06-18T03:55:32.463Z,15.3
2015-06-18T03:55:50.823Z,15.3
2015-06-18T03:56:09.323Z,15.3
2015-06-18T03:56:27.669Z,15.3
2015-06-18T03:56:46.278Z,15.4
2015-06-18T03:57:04.731Z,15.4
2015-06-18T03:57:23.047Z,15.5
2015-06-18T03:57:41.640Z,15.5
2015-06-18T03:57:59.922Z,15.5
2015-06-18T03:58:17.703Z,15.5
2015-06-18T03:58:36.142Z,15.5
2015-06-18T03:58:54.533Z,15.5
2015-06-18T03:59:12.924Z,15.3
2015-06-18T03:59:31.332Z,15.3
2015-06-18T03:59:49.629Z,15.4
2015-06-18T04:00:08.222Z,15.4
2015-06-18T04:00:26.535Z,15.4
2015-06-18T04:00:44.819Z,15.4
2015-06-18T04:01:03.538Z,15.4
2015-06-18T04:01:22.147Z,15.3
2015-06-18T04:01:40.493Z,15.4
2015-06-18T04:01:58.915Z,15.5
2015-06-18T04:02:17.196Z,15.5
2015-06-18T04:02:35.915Z,15.6
2015-06-18T04:02:54.215Z,15.5
2015-06-18T04:03:12.496Z,15.5
2015-06-18T04:03:30.855Z,15.5
2015-06-18T04:03:48.827Z,15.5
2015-06-18T04:04:07.249Z,15.5
2015-06-18T04:04:25.671Z,15.4
2015-06-18T04:04:44.187Z,15.3
2015-06-18T04:05:02.610Z,15.3
2015-06-18T04:05:21.095Z,15.2
2015-06-18T04:05:39.439Z,15.2
2015-06-18T04:05:57.378Z,15.2
2015-06-18T04:06:15.675Z,15.3
2015-06-18T04:06:34.425Z,15.3
2015-06-18T04:06:52.784Z,15.3
2015-06-18T04:07:11.256Z,15.3
2015-06-18T04:07:29.647Z,15.3
2015-06-18T04:07:47.944Z,15.4
2015-06-18T04:08:06.352Z,15.4